Time;durP1;ratioP1;P1;durP2;ratioP2;P2;SDS_P1;SDS_P2;PMS_P1;PMS_P2;Temp;Humidity;BMP_temperature;BMP_pressure;BME280_temperature;BME280_humidity;BME280_pressure;Samples;Min_cycle;Max_cycle;Signal;HPM_P1;HPM_P2
2023/01/29 00:00:09;;;;;;;79.07;36.92;;;3.40;99.90;;;;;;5053905;28;20061;-84
2023/01/29 00:02:35;;;;;;;111.13;47.20;;;3.70;99.90;;;;;;5054066;28;20052;-83
2023/01/29 00:05:03;;;;;;;88.70;39.47;;;3.30;99.90;;;;;;5054443;28;20025;-84
2023/01/29 00:07:29;;;;;;;88.35;40.95;;;3.40;99.90;;;;;;5053921;28;20056;-85
2023/01/29 00:09:54;;;;;;;57.78;30.20;;;3.80;99.90;;;;;;5054167;28;20062;-84
2023/01/29 00:12:20;;;;;;;50.40;26.13;;;3.70;99.90;;;;;;5054075;28;20017;-84
2023/01/29 00:14:46;;;;;;;71.28;35.50;;;3.70;99.90;;;;;;5045329;28;20033;-84
2023/01/29 00:17:11;;;;;;;54.28;28.52;;;3.40;99.90;;;;;;5053656;28;20074;-84
2023/01/29 00:19:37;;;;;;;63.92;31.77;;;3.40;99.90;;;;;;5053992;28;20021;-84
2023/01/29 00:22:03;;;;;;;61.72;32.03;;;3.80;99.90;;;;;;5053870;28;20055;-85
2023/01/29 00:24:28;;;;;;;107.88;52.55;;;3.50;99.90;;;;;;5053847;28;20040;-84
2023/01/29 00:26:54;;;;;;;51.97;29.80;;;3.60;99.90;;;;;;5053817;28;20393;-84
2023/01/29 00:29:20;;;;;;;52.60;30.83;;;3.50;99.90;;;;;;5053386;28;20037;-84
2023/01/29 00:31:46;;;;;;;32.20;19.02;;;3.50;99.90;;;;;;5053523;28;20032;-84
2023/01/29 00:34:12;;;;;;;15.80;11.80;;;3.80;99.90;;;;;;5053472;28;20033;-85
2023/01/29 00:36:37;;;;;;;17.15;11.85;;;3.70;99.90;;;;;;5053631;28;20032;-84
2023/01/29 00:39:09;;;;;;;14.55;10.45;;;3.30;99.90;;;;;;5053317;28;20114;-84
2023/01/29 00:47:29;;;;;;;14.73;10.27;;;3.70;99.90;;;;;;4991955;28;20022;-84
2023/01/29 00:49:56;;;;;;;15.13;11.85;;;3.70;99.90;;;;;;4991107;28;20050;-84
2023/01/29 00:52:25;;;;;;;14.23;11.20;;;3.20;99.90;;;;;;4991682;28;20131;-84
2023/01/29 00:54:56;;;;;;;16.02;11.27;;;3.30;99.90;;;;;;4991695;28;20154;-84
2023/01/29 00:57:23;;;;;;;17.25;11.07;;;3.30;99.90;;;;;;5008265;28;20026;-85
2023/01/29 00:59:49;;;;;;;16.95;11.57;;;3.50;99.90;;;;;;5010997;28;20033;-84
2023/01/29 01:05:05;;;;;;;16.30;11.70;;;3.40;99.90;;;;;;5010982;28;20080;-84
2023/01/29 01:07:31;;;;;;;16.10;11.30;;;3.60;99.90;;;;;;5011023;28;20034;-84
2023/01/29 01:12:40;;;;;;;14.75;11.20;;;3.40;99.90;;;;;;5010560;28;20033;-85
2023/01/29 01:15:07;;;;;;;16.02;11.88;;;3.50;99.90;;;;;;5010973;28;20046;-84
2023/01/29 01:17:33;;;;;;;16.23;11.85;;;3.20;99.90;;;;;;5010771;28;20101;-84
2023/01/29 01:19:59;;;;;;;16.40;11.90;;;3.20;99.90;;;;;;5010759;28;20061;-84
2023/01/29 01:22:25;;;;;;;15.98;11.82;;;3.60;99.90;;;;;;5048882;28;20041;-84
2023/01/29 01:24:50;;;;;;;16.10;11.15;;;3.40;99.90;;;;;;5052688;28;20021;-85
2023/01/29 01:27:18;;;;;;;15.80;12.02;;;3.20;99.90;;;;;;5052916;28;20437;-84
2023/01/29 01:29:47;;;;;;;17.95;11.93;;;3.20;99.90;;;;;;5052440;28;20059;-85
2023/01/29 01:32:13;;;;;;;17.23;12.00;;;3.20;99.90;;;;;;5052523;28;20041;-84
2023/01/29 01:34:38;;;;;;;49.92;24.23;;;3.50;99.90;;;;;;5052470;28;20029;-84
2023/01/29 01:37:04;;;;;;;104.07;46.78;;;3.60;99.90;;;;;;5052404;28;20094;-84
2023/01/29 01:39:30;;;;;;;54.83;29.65;;;3.20;99.90;;;;;;5052854;28;20021;-84
2023/01/29 01:41:55;;;;;;;94.65;49.70;;;3.20;99.90;;;;;;5051923;28;20362;-84
2023/01/29 01:44:52;;;;;;;21.52;14.35;;;3.40;99.90;;;;;;5052314;28;20025;-84
2023/01/29 01:47:29;;;;;;;17.08;12.02;;;3.30;99.90;;;;;;5052343;28;20477;-84
2023/01/29 01:50:01;;;;;;;26.20;17.33;;;3.30;99.90;;;;;;5052087;28;20032;-84
2023/01/29 01:52:29;;;;;;;17.23;12.43;;;3.30;99.90;;;;;;5052156;28;20040;-84
2023/01/29 01:54:56;;;;;;;15.65;11.45;;;3.20;99.90;;;;;;5056642;28;20034;-84
2023/01/29 01:57:24;;;;;;;18.02;12.07;;;3.50;99.90;;;;;;5071861;28;20104;-85
2023/01/29 02:00:00;;;;;;;15.18;11.18;;;3.20;99.90;;;;;;5072074;28;20603;-84
2023/01/29 02:10:44;;;;;;;15.93;11.60;;;3.50;99.90;;;;;;5072356;28;20078;-84
2023/01/29 02:13:11;;;;;;;15.90;11.45;;;3.30;99.90;;;;;;5072189;28;20032;-84
2023/01/29 02:15:47;;;;;;;17.58;13.05;;;3.50;99.90;;;;;;5071918;28;20059;-84
2023/01/29 02:18:18;;;;;;;20.88;14.90;;;3.30;99.90;;;;;;5051617;28;20074;-84
2023/01/29 02:20:58;;;;;;;44.15;28.17;;;3.70;99.90;;;;;;5052157;28;20029;-84
2023/01/29 02:23:42;;;;;;;51.28;31.58;;;3.30;99.90;;;;;;5051893;28;20219;-84
2023/01/29 02:26:44;;;;;;;112.15;60.45;;;3.30;99.90;;;;;;5051507;28;20036;-84
2023/01/29 02:29:33;;;;;;;74.95;44.05;;;3.30;99.90;;;;;;5051891;28;20029;-84
2023/01/29 02:32:17;;;;;;;41.72;26.15;;;3.30;99.90;;;;;;5051571;28;20030;-84
2023/01/29 02:38:16;;;;;;;85.60;42.40;;;3.40;99.90;;;;;;5052484;28;20496;-84
2023/01/29 02:40:44;;;;;;;50.60;26.35;;;3.50;99.90;;;;;;5051383;28;20032;-84
2023/01/29 02:43:28;;;;;;;37.40;21.10;;;3.20;99.90;;;;;;5051640;28;20028;-84
2023/01/29 02:46:17;;;;;;;40.15;22.90;;;3.20;99.90;;;;;;5051721;28;20573;-84
2023/01/29 02:48:51;;;;;;;19.13;13.27;;;3.50;99.90;;;;;;5051639;28;20086;-84
2023/01/29 02:51:26;;;;;;;88.28;41.33;;;3.30;99.90;;;;;;5051583;28;20018;-84
2023/01/29 02:53:55;;;;;;;78.75;38.60;;;3.40;99.90;;;;;;5043717;28;20075;-84
2023/01/29 02:56:48;;;;;;;31.42;18.38;;;3.30;99.90;;;;;;5051524;28;20028;-85
2023/01/29 02:59:20;;;;;;;22.83;14.90;;;3.30;99.90;;;;;;5048233;28;20044;-84
2023/01/29 03:01:55;;;;;;;29.20;16.80;;;3.30;99.90;;;;;;5051606;28;20040;-84
2023/01/29 03:04:30;;;;;;;41.85;23.23;;;3.60;99.90;;;;;;5051301;28;20060;-84
2023/01/29 03:07:45;;;;;;;19.95;13.55;;;3.40;99.90;;;;;;5051240;28;20570;-84
2023/01/29 03:10:19;;;;;;;83.85;40.53;;;3.40;99.90;;;;;;5050937;28;20041;-84
2023/01/29 03:13:01;;;;;;;60.63;31.65;;;3.30;99.90;;;;;;5051932;28;20067;-85
2023/01/29 03:15:37;;;;;;;70.95;37.13;;;3.30;99.90;;;;;;5054957;28;20029;-84
2023/01/29 03:18:21;;;;;;;32.38;19.52;;;3.30;99.90;;;;;;5049850;28;20021;-84
2023/01/29 03:20:57;;;;;;;28.65;17.30;;;3.20;99.90;;;;;;5054845;28;20035;-84
2023/01/29 03:32:05;;;;;;;26.25;17.08;;;3.30;99.90;;;;;;5054855;28;20768;-84
2023/01/29 03:34:42;;;;;;;104.45;52.03;;;3.00;99.90;;;;;;5054890;28;20075;-85
2023/01/29 03:37:15;;;;;;;75.82;40.45;;;3.20;99.90;;;;;;5054605;28;20025;-84
2023/01/29 03:39:41;;;;;;;70.65;36.47;;;3.20;99.90;;;;;;5054793;28;20070;-85
2023/01/29 03:43:11;;;;;;;67.53;36.28;;;3.30;99.90;;;;;;5054327;28;20096;-84
2023/01/29 03:46:08;;;;;;;61.97;31.50;;;3.40;99.90;;;;;;4992743;28;20031;-84
2023/01/29 03:48:36;;;;;;;72.43;37.25;;;3.40;99.90;;;;;;4992806;28;20046;-84
2023/01/29 03:51:22;;;;;;;19.23;12.30;;;3.40;99.90;;;;;;4993120;28;20031;-84
2023/01/29 03:53:57;;;;;;;55.35;30.23;;;3.30;99.90;;;;;;4992304;28;20038;-84
2023/01/29 03:56:31;;;;;;;44.63;23.77;;;3.40;99.90;;;;;;4992822;28;20121;-84
2023/01/29 03:59:02;;;;;;;51.03;27.20;;;3.20;99.90;;;;;;4992699;28;20499;-85
2023/01/29 04:01:35;;;;;;;39.85;21.73;;;3.30;99.90;;;;;;4992738;28;20054;-84
2023/01/29 04:04:13;;;;;;;43.67;23.45;;;3.50;99.90;;;;;;4992530;28;20475;-84
2023/01/29 04:06:42;;;;;;;40.70;22.23;;;3.30;99.90;;;;;;4992602;28;20040;-84
2023/01/29 04:09:35;;;;;;;39.33;20.65;;;3.30;99.90;;;;;;4992880;28;20439;-84
2023/01/29 04:12:08;;;;;;;32.17;18.02;;;3.40;99.90;;;;;;4992422;28;20076;-84
2023/01/29 04:14:34;;;;;;;176.57;71.75;;;3.20;99.90;;;;;;4992527;28;20030;-84
2023/01/29 04:17:22;;;;;;;23.73;15.70;;;3.50;99.90;;;;;;4992267;28;20085;-85
2023/01/29 04:19:48;;;;;;;74.50;33.63;;;3.30;99.90;;;;;;5020029;28;20039;-84
2023/01/29 04:22:23;;;;;;;107.03;46.33;;;3.60;99.90;;;;;;5053202;28;20025;-83
2023/01/29 04:24:50;;;;;;;134.05;55.25;;;3.30;99.90;;;;;;5053053;28;20112;-84
2023/01/29 04:27:27;;;;;;;98.22;43.00;;;3.50;99.90;;;;;;5053987;28;20021;-84
2023/01/29 04:30:20;;;;;;;112.78;48.20;;;3.30;99.90;;;;;;5053878;28;20033;-85
2023/01/29 04:33:09;;;;;;;66.65;32.25;;;3.40;99.90;;;;;;5053714;28;20516;-84
2023/01/29 04:35:41;;;;;;;55.95;27.25;;;3.30;99.90;;;;;;5053228;28;20056;-84
2023/01/29 04:38:14;;;;;;;41.38;20.65;;;3.40;99.90;;;;;;5053553;28;20029;-84
2023/01/29 04:40:55;;;;;;;81.38;35.22;;;3.30;99.90;;;;;;5053774;28;20057;-84
2023/01/29 04:43:29;;;;;;;50.05;24.00;;;3.30;99.90;;;;;;5053775;28;20378;-84
2023/01/29 04:46:16;;;;;;;109.47;45.40;;;3.40;99.90;;;;;;5053492;28;20049;-85
2023/01/29 04:48:58;;;;;;;42.38;20.15;;;3.30;99.90;;;;;;5053315;28;20503;-84
2023/01/29 04:51:42;;;;;;;53.60;24.70;;;3.20;99.90;;;;;;5052748;28;20028;-84
2023/01/29 04:54:25;;;;;;;31.63;16.83;;;3.20;99.90;;;;;;5052934;28;20021;-84
2023/01/29 04:57:01;;;;;;;24.05;13.90;;;3.50;99.90;;;;;;5053409;28;20036;-84
2023/01/29 04:59:35;;;;;;;159.75;53.83;;;3.00;99.90;;;;;;5052993;28;20473;-84
2023/01/29 05:02:01;;;;;;;77.55;30.17;;;3.20;99.90;;;;;;5052681;28;20048;-84
2023/01/29 05:04:31;;;;;;;86.78;33.95;;;3.20;99.90;;;;;;5052369;28;20025;-84
2023/01/29 05:07:00;;;;;;;20.23;12.23;;;3.10;99.90;;;;;;5053175;28;20055;-84
2023/01/29 05:09:25;;;;;;;31.90;16.17;;;2.90;99.90;;;;;;5052658;28;20036;-84
2023/01/29 05:11:51;;;;;;;32.13;16.60;;;3.30;99.90;;;;;;5052606;28;20469;-84
2023/01/29 05:14:19;;;;;;;20.05;12.88;;;3.40;99.90;;;;;;5052418;28;20021;-85
2023/01/29 05:16:51;;;;;;;17.90;12.57;;;2.80;99.90;;;;;;5052913;28;20382;-84
2023/01/29 05:19:17;;;;;;;25.88;15.57;;;3.20;99.90;;;;;;5052474;28;20040;-84
2023/01/29 05:21:45;;;;;;;20.15;13.02;;;2.70;99.90;;;;;;5052785;28;20378;-84
2023/01/29 05:24:20;;;;;;;16.83;11.15;;;2.70;99.90;;;;;;5052705;28;20032;-84
2023/01/29 05:29:31;;;;;;;18.40;12.43;;;3.30;99.90;;;;;;5052879;28;20543;-84
2023/01/29 05:31:57;;;;;;;21.27;13.88;;;2.70;99.90;;;;;;5052370;28;20045;-84
2023/01/29 05:34:23;;;;;;;15.98;11.65;;;2.70;99.90;;;;;;5052189;28;20029;-84
2023/01/29 05:36:49;;;;;;;19.30;12.75;;;3.20;99.90;;;;;;5052286;28;20029;-84
2023/01/29 05:39:15;;;;;;;20.02;12.55;;;3.20;99.90;;;;;;5052401;28;20025;-84
2023/01/29 05:41:41;;;;;;;19.92;12.95;;;2.60;99.90;;;;;;5052302;28;20398;-84
2023/01/29 05:44:08;;;;;;;22.70;15.27;;;3.00;99.90;;;;;;5052675;28;20024;-84
2023/01/29 05:46:34;;;;;;;17.92;12.32;;;3.10;99.90;;;;;;5052513;28;20100;-84
2023/01/29 05:48:59;;;;;;;17.05;11.45;;;3.00;99.90;;;;;;5051808;28;20501;-84
2023/01/29 05:51:25;;;;;;;15.32;11.10;;;2.90;99.90;;;;;;5052295;28;20033;-85
2023/01/29 05:53:51;;;;;;;16.38;11.23;;;2.90;99.90;;;;;;5051828;28;20021;-84
2023/01/29 05:56:16;;;;;;;18.73;11.98;;;3.00;99.90;;;;;;5052477;28;20420;-84
2023/01/29 05:58:42;;;;;;;18.80;12.75;;;2.50;99.90;;;;;;5052143;28;20600;-84
2023/01/29 06:01:16;;;;;;;20.85;13.45;;;2.90;99.90;;;;;;5052045;28;20038;-84
2023/01/29 06:03:43;;;;;;;17.98;11.85;;;2.60;99.90;;;;;;5051600;28;20043;-85
2023/01/29 06:06:08;;;;;;;22.48;15.18;;;2.80;99.90;;;;;;5051866;28;20417;-83
2023/01/29 06:08:34;;;;;;;18.30;12.05;;;3.00;99.90;;;;;;5051894;28;20029;-84
2023/01/29 06:11:00;;;;;;;17.50;12.23;;;2.40;99.90;;;;;;5051888;28;20492;-84
2023/01/29 06:13:25;;;;;;;15.65;11.40;;;2.70;99.90;;;;;;5052076;28;20099;-84
2023/01/29 06:15:51;;;;;;;26.40;18.80;;;2.40;99.90;;;;;;5051891;28;20029;-84
2023/01/29 06:18:17;;;;;;;22.50;15.05;;;2.90;99.90;;;;;;5051573;28;20040;-84
2023/01/29 06:20:42;;;;;;;16.60;11.68;;;2.50;99.90;;;;;;5051943;28;20021;-84
2023/01/29 06:23:08;;;;;;;18.15;12.63;;;2.50;99.90;;;;;;5052388;28;20622;-84
2023/01/29 06:25:34;;;;;;;18.85;12.05;;;2.40;99.90;;;;;;5051867;28;20032;-83
2023/01/29 06:27:59;;;;;;;17.35;12.07;;;2.40;99.90;;;;;;5033924;28;20047;-84
2023/01/29 06:30:27;;;;;;;17.52;12.10;;;3.00;99.90;;;;;;5052002;28;20119;-84
2023/01/29 06:32:57;;;;;;;18.42;13.98;;;2.50;99.90;;;;;;5051191;28;20539;-84
2023/01/29 06:35:23;;;;;;;18.20;11.95;;;2.80;99.90;;;;;;5052133;28;20104;-84
2023/01/29 06:37:50;;;;;;;17.88;12.02;;;2.90;99.90;;;;;;5051760;28;20489;-84
2023/01/29 06:40:16;;;;;;;19.73;12.85;;;2.40;99.90;;;;;;5051720;28;20079;-84
2023/01/29 06:42:41;;;;;;;18.65;13.45;;;2.20;99.90;;;;;;5051555;28;20033;-84
2023/01/29 06:45:08;;;;;;;17.00;11.90;;;2.30;99.90;;;;;;5051910;28;20025;-84
2023/01/29 06:47:33;;;;;;;18.98;12.85;;;2.30;99.90;;;;;;5051555;28;20029;-84
2023/01/29 06:49:59;;;;;;;16.13;12.13;;;2.40;99.90;;;;;;5055467;28;20370;-84
2023/01/29 06:52:27;;;;;;;18.45;12.32;;;2.60;99.90;;;;;;5055863;28;20531;-84
2023/01/29 06:54:53;;;;;;;17.52;12.55;;;2.40;99.90;;;;;;5055316;28;20036;-84
2023/01/29 06:57:19;;;;;;;17.35;11.90;;;2.70;99.90;;;;;;5055561;28;20025;-84
2023/01/29 06:59:45;;;;;;;17.73;12.43;;;3.10;99.90;;;;;;5055365;28;20362;-84
2023/01/29 07:02:10;;;;;;;19.13;13.30;;;3.00;99.90;;;;;;5055019;28;20033;-83
2023/01/29 07:04:36;;;;;;;17.55;12.02;;;2.50;99.90;;;;;;5055494;28;20021;-85
2023/01/29 07:07:02;;;;;;;16.23;11.90;;;2.90;99.90;;;;;;5055106;28;20033;-84
2023/01/29 07:09:28;;;;;;;16.40;11.40;;;2.50;99.90;;;;;;5055092;28;20508;-85
2023/01/29 07:11:54;;;;;;;18.38;12.30;;;2.60;99.90;;;;;;5055155;28;20029;-84
2023/01/29 07:14:19;;;;;;;17.80;12.10;;;2.50;99.90;;;;;;5055166;28;20021;-84
2023/01/29 07:16:45;;;;;;;17.90;12.27;;;2.50;99.90;;;;;;5049530;28;20094;-84
2023/01/29 07:19:10;;;;;;;17.73;12.77;;;2.40;99.90;;;;;;5054955;28;20052;-83
2023/01/29 07:21:36;;;;;;;17.45;12.50;;;2.30;99.90;;;;;;5054463;28;20029;-85
2023/01/29 07:24:02;;;;;;;16.27;12.13;;;2.70;99.90;;;;;;5055244;28;20051;-84
2023/01/29 07:26:28;;;;;;;16.77;12.15;;;2.50;99.90;;;;;;5054854;28;20021;-84
2023/01/29 07:28:53;;;;;;;16.55;11.93;;;2.70;99.90;;;;;;5054565;28;20362;-84
2023/01/29 07:31:20;;;;;;;17.38;12.20;;;3.20;99.90;;;;;;5054596;28;20035;-84
2023/01/29 07:33:46;;;;;;;16.65;11.15;;;2.90;99.90;;;;;;5054441;28;20474;-84
2023/01/29 07:36:12;;;;;;;17.98;13.02;;;2.60;99.90;;;;;;5054644;28;20037;-84
2023/01/29 07:38:38;;;;;;;18.50;12.52;;;3.00;99.90;;;;;;5054621;28;20033;-85
2023/01/29 07:41:03;;;;;;;18.08;12.27;;;3.00;99.90;;;;;;5054532;28;20029;-84
2023/01/29 07:43:29;;;;;;;18.98;14.07;;;2.30;99.90;;;;;;5055017;28;20013;-84
2023/01/29 07:45:55;;;;;;;18.10;12.48;;;2.50;99.90;;;;;;5054221;28;20054;-85
2023/01/29 07:48:20;;;;;;;18.42;12.40;;;2.50;99.90;;;;;;5054318;28;20025;-84
2023/01/29 07:50:57;;;;;;;18.45;12.18;;;3.00;99.90;;;;;;5054290;28;20033;-84
2023/01/29 07:53:23;;;;;;;17.67;12.02;;;2.60;99.90;;;;;;5054391;28;20132;-85
2023/01/29 07:55:48;;;;;;;16.55;12.35;;;2.80;99.90;;;;;;5054345;28;20112;-84
2023/01/29 07:58:14;;;;;;;17.92;12.20;;;2.90;99.90;;;;;;5053892;28;20025;-84
2023/01/29 08:00:40;;;;;;;20.27;12.85;;;2.70;99.90;;;;;;5052777;28;20079;-84
2023/01/29 08:03:12;;;;;;;18.77;13.10;;;2.80;99.90;;;;;;5054150;28;20025;-84
2023/01/29 08:05:38;;;;;;;19.85;12.75;;;3.10;99.90;;;;;;5054800;28;20040;-83
2023/01/29 08:08:04;;;;;;;16.55;12.45;;;2.80;99.90;;;;;;5053951;28;20017;-84
2023/01/29 08:10:30;;;;;;;18.85;12.85;;;2.80;99.90;;;;;;5054471;28;20033;-84
2023/01/29 08:12:58;;;;;;;18.75;13.18;;;2.90;99.90;;;;;;5053851;28;20021;-84
2023/01/29 08:15:24;;;;;;;19.98;12.23;;;3.50;99.90;;;;;;5054028;28;20021;-84
2023/01/29 08:17:50;;;;;;;17.50;12.48;;;3.30;99.90;;;;;;5048743;28;20048;-84
2023/01/29 08:20:17;;;;;;;20.17;12.00;;;3.20;99.90;;;;;;5054031;28;20029;-84
2023/01/29 08:22:42;;;;;;;16.02;11.48;;;3.30;99.90;;;;;;5053909;28;20499;-84
2023/01/29 08:25:08;;;;;;;17.60;12.32;;;3.50;99.90;;;;;;5053088;28;20029;-85
2023/01/29 08:27:34;;;;;;;24.88;16.55;;;3.10;99.90;;;;;;5053002;28;20152;-84
2023/01/29 08:30:00;;;;;;;38.40;21.85;;;3.50;99.90;;;;;;5053494;28;20048;-84
2023/01/29 08:32:25;;;;;;;84.15;48.80;;;3.60;99.90;;;;;;5053756;28;20037;-84
2023/01/29 08:34:51;;;;;;;51.47;35.78;;;3.60;99.90;;;;;;5053483;28;20025;-84
2023/01/29 08:37:17;;;;;;;23.80;15.93;;;3.60;99.90;;;;;;5053546;28;20538;-84
2023/01/29 08:39:42;;;;;;;22.00;13.77;;;3.30;99.90;;;;;;5053550;28;20021;-84
2023/01/29 08:42:08;;;;;;;22.15;15.95;;;3.30;99.90;;;;;;5053038;28;20024;-84
2023/01/29 08:44:34;;;;;;;17.45;12.32;;;3.10;99.90;;;;;;5053438;28;20488;-84
2023/01/29 08:46:59;;;;;;;29.25;20.23;;;3.30;99.90;;;;;;5053351;28;20029;-84
2023/01/29 08:49:25;;;;;;;26.40;18.48;;;3.40;99.90;;;;;;5053181;28;20037;-84
2023/01/29 08:51:50;;;;;;;38.38;27.20;;;3.20;99.90;;;;;;5053339;28;20025;-84
2023/01/29 08:54:16;;;;;;;20.10;13.57;;;3.20;99.90;;;;;;5053054;28;20021;-84
2023/01/29 08:56:42;;;;;;;20.58;14.60;;;3.30;99.90;;;;;;5053287;28;20052;-84
2023/01/29 08:59:09;;;;;;;22.10;14.57;;;3.30;99.90;;;;;;5053124;28;20035;-84
2023/01/29 09:01:35;;;;;;;18.55;13.35;;;3.40;99.90;;;;;;5053302;28;20029;-84
2023/01/29 09:04:01;;;;;;;24.20;13.73;;;3.50;99.90;;;;;;5053951;28;20029;-84
2023/01/29 09:06:26;;;;;;;18.92;12.95;;;3.20;99.90;;;;;;5053267;28;20025;-84
2023/01/29 09:08:52;;;;;;;20.17;11.88;;;3.60;99.90;;;;;;5052935;28;20042;-84
2023/01/29 09:11:18;;;;;;;24.23;14.20;;;3.30;99.90;;;;;;5052196;28;20029;-84
2023/01/29 09:13:43;;;;;;;18.58;13.20;;;3.30;99.90;;;;;;5052922;28;20021;-85
2023/01/29 09:16:09;;;;;;;18.98;12.30;;;3.40;99.90;;;;;;5052323;28;20041;-85
2023/01/29 09:18:35;;;;;;;20.08;12.45;;;3.50;99.90;;;;;;5052704;28;20021;-84
2023/01/29 09:21:01;;;;;;;26.05;17.08;;;3.70;99.90;;;;;;5034832;28;20029;-85
2023/01/29 09:23:28;;;;;;;20.55;12.75;;;3.90;99.90;;;;;;5051937;28;20021;-85
2023/01/29 09:25:54;;;;;;;20.27;12.65;;;4.00;99.90;;;;;;5052206;28;20033;-84
2023/01/29 09:28:20;;;;;;;22.77;14.98;;;4.00;99.90;;;;;;5052289;28;20025;-84
2023/01/29 09:30:46;;;;;;;19.52;12.27;;;4.20;99.90;;;;;;5052754;28;20116;-85
2023/01/29 09:33:11;;;;;;;19.17;14.65;;;3.70;99.90;;;;;;5052524;28;20040;-84
2023/01/29 09:35:40;;;;;;;17.77;13.02;;;3.70;99.90;;;;;;5052704;28;20107;-84
2023/01/29 09:38:05;;;;;;;16.83;11.75;;;3.80;99.90;;;;;;5052220;28;20037;-81
2023/01/29 09:40:59;;;;;;;20.48;15.63;;;4.20;99.90;;;;;;5052626;28;20028;-92
2023/01/29 09:43:55;;;;;;;23.63;18.50;;;4.00;99.90;;;;;;5052270;28;20017;-86
2023/01/29 09:46:29;;;;;;;20.83;15.68;;;3.80;99.90;;;;;;5031445;28;20026;-87
2023/01/29 09:49:11;;;;;;;21.17;13.90;;;4.10;99.90;;;;;;5044157;28;20043;-92
2023/01/29 09:51:42;;;;;;;28.98;20.35;;;4.00;99.90;;;;;;5051972;28;20115;-85
2023/01/29 09:54:31;;;;;;;35.13;23.38;;;4.30;99.90;;;;;;5051890;28;20022;-85
2023/01/29 09:56:57;;;;;;;20.95;14.55;;;3.90;99.90;;;;;;5052515;28;20032;-87
2023/01/29 09:59:26;;;;;;;34.45;22.95;;;3.90;99.90;;;;;;5052064;28;20516;-89
2023/01/29 10:02:09;;;;;;;20.63;13.18;;;4.30;99.90;;;;;;5034431;28;20089;-88
2023/01/29 10:04:56;;;;;;;18.48;12.02;;;4.00;99.90;;;;;;5034219;28;20067;-86
2023/01/29 10:08:03;;;;;;;19.90;13.90;;;4.20;99.90;;;;;;5052226;28;20082;-87
2023/01/29 10:10:28;;;;;;;17.60;12.55;;;4.10;99.90;;;;;;4990037;28;20145;-88
2023/01/29 10:13:00;;;;;;;16.83;11.95;;;4.10;99.90;;;;;;4990542;28;20101;-87
2023/01/29 10:15:50;;;;;;;25.60;15.98;;;4.00;99.90;;;;;;4971631;28;20505;-89
2023/01/29 10:18:42;;;;;;;16.77;11.57;;;3.80;99.90;;;;;;4971223;28;20121;-89
2023/01/29 10:21:25;;;;;;;28.33;20.77;;;4.00;99.90;;;;;;4970893;28;20535;-89
2023/01/29 10:24:40;;;;;;;23.33;17.23;;;4.10;99.90;;;;;;4985788;28;20670;-92
2023/01/29 10:27:16;;;;;;;37.80;23.83;;;3.90;99.90;;;;;;4983474;28;20412;-88
2023/01/29 10:29:44;;;;;;;16.65;11.95;;;4.40;99.90;;;;;;4977475;28;20046;-90
2023/01/29 10:32:22;;;;;;;17.92;12.35;;;4.00;99.90;;;;;;4982467;28;20074;-90
2023/01/29 10:35:11;;;;;;;21.73;13.40;;;4.10;99.90;;;;;;4981774;28;20042;-90
2023/01/29 10:37:40;;;;;;;22.77;15.32;;;4.10;99.90;;;;;;4985527;28;20534;-89
2023/01/29 10:40:12;;;;;;;19.50;12.45;;;4.00;99.90;;;;;;4974820;28;20042;-90
2023/01/29 10:42:48;;;;;;;19.38;12.95;;;3.90;99.90;;;;;;4984043;28;20126;-92
2023/01/29 10:46:15;;;;;;;40.47;25.92;;;3.70;99.90;;;;;;4993417;28;20069;-91
2023/01/29 10:48:59;;;;;;;16.80;12.43;;;4.00;99.90;;;;;;4951644;28;20249;-93
2023/01/29 10:51:46;;;;;;;34.90;22.83;;;3.80;99.90;;;;;;4957005;28;20049;-92
2023/01/29 10:54:36;;;;;;;42.50;27.38;;;3.80;99.90;;;;;;4946979;28;20034;-90
2023/01/29 10:57:40;;;;;;;21.05;12.90;;;4.00;99.90;;;;;;4958353;28;20026;-90
2023/01/29 11:00:20;;;;;;;18.88;12.65;;;3.70;99.90;;;;;;4969140;28;20523;-91
2023/01/29 11:02:49;;;;;;;35.15;23.63;;;3.90;99.90;;;;;;4958022;28;20023;-90
2023/01/29 11:05:36;;;;;;;18.48;12.75;;;3.90;99.90;;;;;;4975675;28;20030;-88
2023/01/29 11:08:11;;;;;;;29.70;19.30;;;4.00;99.90;;;;;;4970848;28;20039;-90
2023/01/29 11:10:47;;;;;;;33.15;22.33;;;4.50;99.90;;;;;;4974545;28;20118;-90
2023/01/29 11:13:14;;;;;;;94.90;68.32;;;4.20;99.90;;;;;;4958535;28;20043;-89
2023/01/29 11:15:40;;;;;;;34.58;25.73;;;4.10;99.90;;;;;;4974346;28;20035;-90
2023/01/29 11:18:14;;;;;;;20.27;13.70;;;4.30;99.90;;;;;;4982631;28;20037;-89
2023/01/29 11:20:42;;;;;;;17.45;12.73;;;4.40;99.90;;;;;;5038450;28;20032;-89
2023/01/29 11:23:29;;;;;;;20.75;16.08;;;4.20;99.90;;;;;;5052823;28;20217;-87
2023/01/29 11:25:57;;;;;;;21.50;14.73;;;3.90;99.90;;;;;;5036513;28;20040;-87
2023/01/29 11:28:43;;;;;;;27.83;19.50;;;3.80;99.90;;;;;;5054139;28;20412;-86
2023/01/29 11:31:19;;;;;;;17.85;12.63;;;4.20;99.90;;;;;;5044088;28;20079;-87
2023/01/29 11:33:45;;;;;;;19.20;13.15;;;4.20;99.90;;;;;;5044924;28;20045;-87
2023/01/29 11:36:38;;;;;;;17.20;12.40;;;4.60;99.90;;;;;;5036424;28;20029;-86
2023/01/29 11:39:22;;;;;;;18.17;12.80;;;4.10;99.90;;;;;;5053518;28;20565;-88
2023/01/29 11:42:00;;;;;;;21.45;15.38;;;4.20;99.90;;;;;;5008833;28;20033;-88
2023/01/29 11:44:37;;;;;;;17.55;11.95;;;4.20;99.90;;;;;;5034065;28;20504;-87
2023/01/29 11:47:15;;;;;;;15.80;12.57;;;3.90;99.90;;;;;;5034171;28;20087;-88
2023/01/29 11:49:58;;;;;;;20.65;13.95;;;4.00;99.90;;;;;;5034228;28;20079;-89
2023/01/29 11:52:33;;;;;;;18.58;11.65;;;4.10;99.90;;;;;;5040490;28;20075;-87
2023/01/29 11:55:04;;;;;;;23.92;19.65;;;4.10;99.90;;;;;;5054531;28;20112;-87
2023/01/29 11:57:40;;;;;;;17.88;13.32;;;4.40;99.90;;;;;;5053859;28;20021;-86
2023/01/29 12:00:22;;;;;;;18.08;13.80;;;4.20;99.90;;;;;;5054113;28;20094;-87
2023/01/29 12:02:54;;;;;;;25.33;20.67;;;4.30;99.90;;;;;;5053248;28;20025;-86
2023/01/29 12:05:22;;;;;;;18.92;14.73;;;4.30;99.90;;;;;;5036734;28;20025;-87
2023/01/29 12:07:59;;;;;;;21.08;13.48;;;4.30;99.90;;;;;;5036196;28;20492;-87
2023/01/29 12:10:36;;;;;;;24.50;20.42;;;4.50;99.90;;;;;;5054192;28;20036;-87
2023/01/29 12:13:15;;;;;;;29.35;25.02;;;4.50;99.90;;;;;;5054029;28;20048;-87
2023/01/29 12:15:41;;;;;;;16.33;12.88;;;4.90;99.90;;;;;;5054113;28;20033;-87
2023/01/29 12:18:31;;;;;;;16.92;11.73;;;5.10;99.90;;;;;;5053512;28;20082;-87
2023/01/29 12:21:10;;;;;;;24.08;16.48;;;4.80;99.90;;;;;;5035929;28;20067;-87
2023/01/29 12:24:07;;;;;;;29.73;20.42;;;4.90;99.90;;;;;;5054291;28;20037;-87
2023/01/29 12:26:43;;;;;;;19.15;15.18;;;5.30;99.90;;;;;;5028120;28;20037;-87
2023/01/29 12:29:18;;;;;;;17.83;13.10;;;4.90;99.90;;;;;;5035449;28;20155;-87
2023/01/29 12:31:54;;;;;;;16.27;11.85;;;4.60;99.90;;;;;;5035632;28;20036;-87
2023/01/29 12:34:34;;;;;;;16.10;11.57;;;4.60;99.90;;;;;;5053078;28;20040;-87
2023/01/29 12:37:32;;;;;;;17.10;12.25;;;4.50;99.90;;;;;;5053560;28;20033;-87
2023/01/29 12:40:00;;;;;;;17.48;12.63;;;4.50;99.90;;;;;;4992260;28;20483;-87
2023/01/29 12:42:26;;;;;;;15.10;11.07;;;5.00;99.90;;;;;;4975686;28;20137;-87
2023/01/29 12:44:59;;;;;;;17.90;12.40;;;5.10;99.90;;;;;;4992109;28;20479;-86
2023/01/29 12:47:37;;;;;;;17.90;12.63;;;4.90;99.90;;;;;;4991752;28;20038;-87
2023/01/29 12:50:13;;;;;;;17.55;14.00;;;4.80;99.90;;;;;;4992297;28;20086;-87
2023/01/29 12:52:59;;;;;;;15.35;11.48;;;4.90;99.90;;;;;;4991914;28;20049;-87
2023/01/29 12:55:52;;;;;;;16.23;11.85;;;4.80;99.90;;;;;;4952556;29;20043;-87
2023/01/29 12:58:34;;;;;;;14.13;11.00;;;4.90;99.90;;;;;;4952975;28;20537;-87
2023/01/29 13:01:15;;;;;;;15.88;11.48;;;4.60;99.90;;;;;;4952725;28;20047;-87
2023/01/29 13:04:00;;;;;;;16.48;11.48;;;4.70;99.90;;;;;;4952556;28;20488;-87
2023/01/29 13:06:30;;;;;;;15.70;11.25;;;5.10;99.90;;;;;;4952872;29;20047;-87
2023/01/29 13:09:05;;;;;;;16.83;12.45;;;4.90;99.90;;;;;;4952481;29;20054;-87
2023/01/29 13:11:51;;;;;;;18.42;12.88;;;4.90;99.90;;;;;;4952696;29;20028;-86
2023/01/29 13:14:52;;;;;;;17.20;12.60;;;5.00;99.90;;;;;;4952580;29;20036;-87
2023/01/29 13:17:36;;;;;;;18.17;13.38;;;4.90;99.90;;;;;;4990803;28;20395;-87
2023/01/29 13:20:27;;;;;;;16.23;12.30;;;5.30;99.90;;;;;;4974824;28;20117;-87
2023/01/29 13:22:57;;;;;;;17.15;12.68;;;5.00;99.90;;;;;;4972806;28;20034;-87
2023/01/29 13:25:22;;;;;;;17.70;12.60;;;5.00;99.90;;;;;;4991349;28;20041;-87
2023/01/29 13:27:48;;;;;;;18.30;13.23;;;5.20;99.90;;;;;;4991265;28;20430;-87
2023/01/29 13:30:29;;;;;;;18.35;14.25;;;5.10;99.90;;;;;;4991019;28;20038;-86
2023/01/29 13:33:07;;;;;;;17.63;13.48;;;5.10;99.90;;;;;;5013894;28;20044;-87
2023/01/29 13:35:39;;;;;;;18.27;12.95;;;5.20;99.90;;;;;;5034600;28;20063;-87
2023/01/29 13:38:14;;;;;;;15.45;11.57;;;4.80;99.90;;;;;;5034466;28;20116;-87